TimeEDT,TemperatureF,Dew PointF,Humidity,Sea Level PressureIn,VisibilityMPH,Wind Direction,Wind SpeedMPH,Gust SpeedMPH,PrecipitationIn,Events,Conditions,WindDirDegrees,DateUTC
12:40 AM,46.4,44.6,93,29.68,3.0,West,8.1,-,0.00,,Overcast,270,2013-04-01 04:40:00
12:51 AM,46.0,45.0,96,29.69,4.0,West,6.9,-,0.00,,Overcast,270,2013-04-01 04:51:00
12:54 AM,46.4,44.6,93,29.68,4.0,West,9.2,-,N/A,,Overcast,270,2013-04-01 04:54:00
1:51 AM,46.0,44.1,93,29.69,7.0,West,11.5,-,N/A,,Overcast,260,2013-04-01 05:51:00
2:11 AM,46.4,44.6,93,29.70,9.0,West,13.8,-,N/A,,Overcast,260,2013-04-01 06:11:00
2:51 AM,46.0,44.1,93,29.71,6.0,WSW,10.4,-,N/A,,Overcast,240,2013-04-01 06:51:00
3:26 AM,44.6,42.8,93,29.71,10.0,West,8.1,-,N/A,,Scattered Clouds,270,2013-04-01 07:26:00
3:51 AM,45.0,42.1,90,29.71,10.0,West,11.5,-,N/A,,Scattered Clouds,270,2013-04-01 07:51:00
4:51 AM,44.1,42.1,93,29.72,10.0,WSW,8.1,-,N/A,,Scattered Clouds,250,2013-04-01 08:51:00
5:51 AM,44.1,42.1,93,29.73,7.0,West,9.2,-,N/A,,Scattered Clouds,260,2013-04-01 09:51:00
6:51 AM,44.1,42.1,93,29.72,6.0,West,6.9,-,N/A,,Scattered Clouds,260,2013-04-01 10:51:00
7:51 AM,46.0,43.0,89,29.72,6.0,SW,8.1,-,N/A,,Scattered Clouds,220,2013-04-01 11:51:00
8:51 AM,46.0,44.1,93,29.73,4.0,SW,11.5,-,N/A,,Partly Cloudy,230,2013-04-01 12:51:00
9:51 AM,48.9,45.0,86,29.71,5.0,SW,12.7,-,N/A,,Mostly Cloudy,230,2013-04-01 13:51:00
10:51 AM,52.0,43.0,71,29.71,7.0,SSW,12.7,-,N/A,,Mostly Cloudy,210,2013-04-01 14:51:00
11:51 AM,55.9,43.0,62,29.70,9.0,SSW,13.8,-,N/A,,Mostly Cloudy,200,2013-04-01 15:51:00
12:51 PM,57.9,44.1,60,29.67,10.0,South,12.7,-,N/A,,Scattered Clouds,190,2013-04-01 16:51:00
1:51 PM,57.9,39.9,51,29.65,10.0,South,15.0,25.3,N/A,,Mostly Cloudy,180,2013-04-01 17:51:00
2:51 PM,62.1,37.9,41,29.63,10.0,WSW,20.7,27.6,N/A,,Mostly Cloudy,240,2013-04-01 18:51:00
3:51 PM,62.1,36.0,38,29.63,10.0,West,26.5,34.5,N/A,,Mostly Cloudy,270,2013-04-01 19:51:00
4:51 PM,55.0,34.0,45,29.68,10.0,WNW,21.9,40.3,N/A,,Mostly Cloudy,300,2013-04-01 20:51:00
5:51 PM,46.0,37.9,73,29.74,10.0,NW,17.3,26.5,0.00,Rain,Light Rain,320,2013-04-01 21:51:00
6:51 PM,46.9,32.0,56,29.75,10.0,NW,10.4,-,0.00,,Mostly Cloudy,320,2013-04-01 22:51:00
7:51 PM,46.0,30.9,56,29.77,10.0,NW,8.1,-,N/A,,Scattered Clouds,310,2013-04-01 23:51:00
8:51 PM,46.9,24.1,41,29.81,10.0,NNW,21.9,28.8,N/A,,Partly Cloudy,330,2013-04-02 00:51:00
9:51 PM,42.1,14.0,32,29.86,10.0,NNW,19.6,27.6,N/A,,Partly Cloudy,330,2013-04-02 01:51:00
10:51 PM,41.0,8.1,26,29.90,10.0,NW,19.6,-,N/A,,Partly Cloudy,310,2013-04-02 02:51:00
11:51 PM,39.0,8.1,28,29.91,10.0,NW,23.0,31.1,N/A,,Clear,320,2013-04-02 03:51:00